createdAt,value
2018-04-02T00:00:14.610Z,986.21
2018-04-02T00:01:14.763Z,986.21
2018-04-02T00:02:14.894Z,986.19
2018-04-02T00:03:15.035Z,986.17
2018-04-02T00:04:15.162Z,986.17
2018-04-02T00:05:15.292Z,986.16
2018-04-02T00:06:15.428Z,986.08
2018-04-02T00:07:15.568Z,986.09
2018-04-02T00:08:15.706Z,986.02
2018-04-02T00:09:15.838Z,986.02
2018-04-02T00:10:15.973Z,986.02
2018-04-02T00:11:16.109Z,986.06
2018-04-02T00:12:16.248Z,986.07
2018-04-02T00:13:16.373Z,986.08
2018-04-02T00:14:16.508Z,986.09
2018-04-02T00:15:16.649Z,986.09
2018-04-02T00:16:16.770Z,986.05
2018-04-02T00:17:16.901Z,986.09
2018-04-02T00:18:17.038Z,986.10
2018-04-02T00:19:17.168Z,986.10
2018-04-02T00:20:17.300Z,986.12
2018-04-02T00:21:17.435Z,986.08
2018-04-02T00:22:17.571Z,986.09
2018-04-02T00:23:17.699Z,986.11
2018-04-02T00:24:17.840Z,986.13
2018-04-02T00:25:17.976Z,986.14
2018-04-02T00:26:18.127Z,986.11
2018-04-02T00:27:18.255Z,986.08
2018-04-02T00:28:18.390Z,986.06
2018-04-02T00:29:18.520Z,986.06
2018-04-02T00:30:18.655Z,986.04
2018-04-02T00:31:18.790Z,986.04
2018-04-02T00:32:18.929Z,986.01
2018-04-02T00:33:19.060Z,985.97
2018-04-02T00:34:19.196Z,985.98
2018-04-02T00:35:19.326Z,985.98
2018-04-02T00:36:19.465Z,985.96
2018-04-02T00:37:19.607Z,986.01
2018-04-02T00:38:19.734Z,985.96
2018-04-02T00:39:19.871Z,985.98
2018-04-02T00:40:20.003Z,985.96
2018-04-02T00:41:20.137Z,986.00
2018-04-02T00:42:20.280Z,985.97
2018-04-02T00:43:20.412Z,985.96
2018-04-02T00:44:20.544Z,985.99
2018-04-02T00:45:20.694Z,986.02
2018-04-02T00:46:20.823Z,986.05
2018-04-02T00:47:20.956Z,986.01
2018-04-02T00:48:21.086Z,986.00
2018-04-02T00:49:21.219Z,986.05
2018-04-02T00:50:21.348Z,986.02
2018-04-02T00:51:21.484Z,986.02
2018-04-02T00:52:21.619Z,986.04
2018-04-02T00:53:21.749Z,986.02
2018-04-02T00:54:21.883Z,986.09
2018-04-02T00:55:22.015Z,986.08
2018-04-02T00:56:22.146Z,986.08
2018-04-02T00:57:22.280Z,986.09
2018-04-02T00:58:22.413Z,986.07
2018-04-02T00:59:22.544Z,986.11
2018-04-02T01:00:22.678Z,986.14
2018-04-02T01:01:22.810Z,986.11
2018-04-02T01:02:22.945Z,986.12
2018-04-02T01:03:23.073Z,986.12
2018-04-02T01:04:23.210Z,986.13
2018-04-02T01:05:23.364Z,986.11
2018-04-02T01:06:23.476Z,986.11
2018-04-02T01:07:23.606Z,986.13
2018-04-02T01:08:23.742Z,986.13
2018-04-02T01:09:23.887Z,986.14
2018-04-02T01:10:24.031Z,986.14
2018-04-02T01:11:24.210Z,986.16
2018-04-02T01:12:24.363Z,986.13
2018-04-02T01:13:24.499Z,986.11
2018-04-02T01:14:24.638Z,986.18
2018-04-02T01:15:24.772Z,986.16
2018-04-02T01:16:24.918Z,986.20
2018-04-02T01:17:25.056Z,986.16
2018-04-02T01:18:25.205Z,986.14
2018-04-02T01:19:25.341Z,986.15
2018-04-02T01:20:25.468Z,986.12
2018-04-02T01:21:25.602Z,986.15
2018-04-02T01:22:25.743Z,986.17
2018-04-02T01:23:25.876Z,986.15
2018-04-02T01:24:26.011Z,986.18
2018-04-02T01:25:26.138Z,986.17
2018-04-02T01:26:26.280Z,986.20
2018-04-02T01:27:26.420Z,986.15
2018-04-02T01:28:26.549Z,986.18
2018-04-02T01:29:26.685Z,986.18
2018-04-02T01:30:26.818Z,986.18
2018-04-02T01:31:26.949Z,986.15
2018-04-02T01:32:27.094Z,986.16
2018-04-02T01:33:27.225Z,986.18
2018-04-02T01:34:27.359Z,986.12
2018-04-02T01:35:27.504Z,986.13
2018-04-02T01:36:27.638Z,986.11
2018-04-02T01:37:27.769Z,986.09
2018-04-02T01:38:27.903Z,986.11
2018-04-02T01:39:28.062Z,986.11
2018-04-02T01:40:28.204Z,986.11
2018-04-02T01:41:28.337Z,986.13
2018-04-02T01:42:28.473Z,986.14
2018-04-02T01:43:28.620Z,986.12
2018-04-02T01:44:28.747Z,986.10
2018-04-02T01:45:28.884Z,986.08
2018-04-02T01:46:29.016Z,986.06
2018-04-02T01:47:29.156Z,986.01
2018-04-02T01:48:29.291Z,986.02
2018-04-02T01:49:29.420Z,986.00
2018-04-02T01:50:29.555Z,985.98
2018-04-02T01:51:29.683Z,986.00
2018-04-02T01:52:29.814Z,986.02
2018-04-02T01:53:29.952Z,986.04
2018-04-02T01:54:30.084Z,986.05
2018-04-02T01:55:31.156Z,986.04
2018-04-02T01:56:30.348Z,986.01
2018-04-02T01:57:30.491Z,986.04
2018-04-02T01:58:30.629Z,986.11
2018-04-02T01:59:30.760Z,986.09
2018-04-02T02:00:30.892Z,986.09
2018-04-02T02:01:31.031Z,986.05
2018-04-02T02:02:31.160Z,986.04
2018-04-02T02:03:31.478Z,986.06
2018-04-02T02:04:31.455Z,986.01
2018-04-02T02:05:31.600Z,986.00
2018-04-02T02:06:31.728Z,986.00
2018-04-02T02:07:31.872Z,985.91
2018-04-02T02:08:32.003Z,985.98
2018-04-02T02:09:32.184Z,985.98
2018-04-02T02:10:32.310Z,985.96
2018-04-02T02:11:32.438Z,985.98
2018-04-02T02:12:32.613Z,985.95
2018-04-02T02:13:32.746Z,985.97
2018-04-02T02:14:32.882Z,985.93
2018-04-02T02:15:32.999Z,985.95
2018-04-02T02:16:33.131Z,985.91
2018-04-02T02:17:33.258Z,985.94
2018-04-02T02:18:33.391Z,985.99
2018-04-02T02:19:33.542Z,985.99
2018-04-02T02:20:33.673Z,985.95
2018-04-02T02:21:33.807Z,985.93
2018-04-02T02:22:33.949Z,985.92
2018-04-02T02:23:34.081Z,985.94
2018-04-02T02:24:34.213Z,985.93
2018-04-02T02:25:34.342Z,985.85
2018-04-02T02:26:34.481Z,985.89
2018-04-02T02:27:34.607Z,985.89
2018-04-02T02:28:34.773Z,985.83
2018-04-02T02:29:34.899Z,985.83
2018-04-02T02:30:35.042Z,985.80
2018-04-02T02:31:35.204Z,985.79
2018-04-02T02:32:35.335Z,985.78
2018-04-02T02:33:35.463Z,985.79
2018-04-02T02:34:35.602Z,985.77
2018-04-02T02:35:35.732Z,985.82
2018-04-02T02:36:35.864Z,985.88
2018-04-02T02:37:35.994Z,985.85
2018-04-02T02:38:36.137Z,985.89
2018-04-02T02:39:36.269Z,985.91
2018-04-02T02:40:36.406Z,985.86
2018-04-02T02:41:36.540Z,985.89
2018-04-02T02:42:36.669Z,985.93
2018-04-02T02:43:36.800Z,985.89
2018-04-02T02:44:36.938Z,985.87
2018-04-02T02:45:37.068Z,985.86
2018-04-02T02:46:37.196Z,985.85
2018-04-02T02:47:37.331Z,985.81
2018-04-02T02:48:37.460Z,985.87
2018-04-02T02:49:37.592Z,985.81
2018-04-02T02:50:37.737Z,985.82
2018-04-02T02:51:37.862Z,985.75
2018-04-02T02:52:37.999Z,985.74
2018-04-02T02:53:38.135Z,985.73
2018-04-02T02:54:38.271Z,985.69
2018-04-02T02:55:38.405Z,985.67
2018-04-02T02:56:38.544Z,985.65
2018-04-02T02:57:38.667Z,985.69
2018-04-02T02:58:38.796Z,985.70
2018-04-02T02:59:38.932Z,985.66
2018-04-02T03:00:39.056Z,985.62
2018-04-02T03:01:39.193Z,985.68
2018-04-02T03:02:39.318Z,985.64
2018-04-02T03:03:39.459Z,985.64
2018-04-02T03:04:39.595Z,985.67
2018-04-02T03:05:39.720Z,985.69
2018-04-02T03:06:39.848Z,985.69
2018-04-02T03:07:40.087Z,985.69
2018-04-02T03:08:40.085Z,985.68
2018-04-02T03:09:40.216Z,985.69
2018-04-02T03:10:40.349Z,985.67
2018-04-02T03:11:40.501Z,985.70
2018-04-02T03:12:40.635Z,985.71
2018-04-02T03:13:40.772Z,985.70
2018-04-02T03:14:40.904Z,985.70
2018-04-02T03:15:41.043Z,985.70
2018-04-02T03:16:41.173Z,985.70
2018-04-02T03:17:41.306Z,985.72
2018-04-02T03:18:41.439Z,985.75
2018-04-02T03:19:41.583Z,985.72
2018-04-02T03:20:41.714Z,985.69
2018-04-02T03:21:41.847Z,985.67
2018-04-02T03:22:41.977Z,985.72
2018-04-02T03:23:42.139Z,985.72
2018-04-02T03:24:42.267Z,985.72
2018-04-02T03:25:42.400Z,985.75
2018-04-02T03:26:42.531Z,985.76
2018-04-02T03:27:42.688Z,985.68
2018-04-02T03:28:42.816Z,985.63
2018-04-02T03:29:42.945Z,985.67
2018-04-02T03:30:43.076Z,985.70
2018-04-02T03:31:43.208Z,985.71
2018-04-02T03:32:43.338Z,985.66
2018-04-02T03:33:43.471Z,985.67
2018-04-02T03:34:43.624Z,985.71
2018-04-02T03:35:43.754Z,985.70
2018-04-02T03:36:43.899Z,985.75
2018-04-02T03:37:44.035Z,985.79
2018-04-02T03:38:44.173Z,985.74
2018-04-02T03:39:44.300Z,985.74
2018-04-02T03:40:44.441Z,985.72
2018-04-02T03:41:44.581Z,985.72
2018-04-02T03:42:44.712Z,985.70
2018-04-02T03:43:44.844Z,985.80
2018-04-02T03:44:44.979Z,985.75
2018-04-02T03:45:45.115Z,985.80
2018-04-02T03:46:45.242Z,985.81
2018-04-02T03:47:45.371Z,985.84
2018-04-02T03:48:45.502Z,985.87
2018-04-02T03:49:45.641Z,985.77
2018-04-02T03:50:45.760Z,985.77
2018-04-02T03:51:45.904Z,985.75
2018-04-02T03:52:46.030Z,985.71
2018-04-02T03:53:46.162Z,985.76
2018-04-02T03:54:46.294Z,985.73
2018-04-02T03:55:46.432Z,985.74
2018-04-02T03:56:46.579Z,985.72
2018-04-02T03:57:46.718Z,985.69
2018-04-02T03:58:47.222Z,985.68
2018-04-02T03:59:46.925Z,985.71
2018-04-02T04:00:47.069Z,985.71
2018-04-02T04:01:47.196Z,985.66
2018-04-02T04:02:47.346Z,985.67
2018-04-02T04:03:47.466Z,985.65
2018-04-02T04:04:47.612Z,985.67
2018-04-02T04:05:47.740Z,985.68
2018-04-02T04:06:47.909Z,985.63
2018-04-02T04:07:48.059Z,985.66
2018-04-02T04:08:48.252Z,985.67
2018-04-02T04:09:48.349Z,985.68
2018-04-02T04:10:48.476Z,985.67
2018-04-02T04:11:48.612Z,985.65
2018-04-02T04:12:48.799Z,985.64
2018-04-02T04:13:48.889Z,985.67
2018-04-02T04:14:49.024Z,985.68
2018-04-02T04:15:49.163Z,985.68
2018-04-02T04:16:49.323Z,985.68
2018-04-02T04:17:49.440Z,985.64
2018-04-02T04:18:49.573Z,985.65
2018-04-02T04:19:49.711Z,985.60
2018-04-02T04:20:49.838Z,985.63
2018-04-02T04:21:49.972Z,985.63
2018-04-02T04:22:50.127Z,985.63
2018-04-02T04:23:50.260Z,985.62
2018-04-02T04:24:50.394Z,985.61
2018-04-02T04:25:50.568Z,985.63
2018-04-02T04:26:50.697Z,985.64
2018-04-02T04:27:50.828Z,985.67
2018-04-02T04:28:50.960Z,985.67
2018-04-02T04:29:51.095Z,985.62
2018-04-02T04:30:51.225Z,985.62
2018-04-02T04:31:51.361Z,985.65
2018-04-02T04:32:51.488Z,985.59
2018-04-02T04:33:51.627Z,985.64
2018-04-02T04:34:51.763Z,985.61
2018-04-02T04:35:51.893Z,985.60
2018-04-02T04:36:52.029Z,985.57
2018-04-02T04:37:52.160Z,985.59
2018-04-02T04:38:52.297Z,985.58
2018-04-02T04:39:52.426Z,985.53
2018-04-02T04:40:52.564Z,985.57
2018-04-02T04:41:52.695Z,985.56
2018-04-02T04:42:52.829Z,985.53
2018-04-02T04:43:52.962Z,985.54
2018-04-02T04:44:53.131Z,985.55
2018-04-02T04:45:53.229Z,985.52
2018-04-02T04:46:53.364Z,985.50
2018-04-02T04:47:53.494Z,985.53
2018-04-02T04:48:53.625Z,985.54
2018-04-02T04:49:53.761Z,985.52
2018-04-02T04:50:53.894Z,985.54
2018-04-02T04:51:54.032Z,985.50
2018-04-02T04:52:54.164Z,985.50
2018-04-02T04:53:54.301Z,985.53
2018-04-02T04:54:54.448Z,985.49
2018-04-02T04:55:54.583Z,985.55
2018-04-02T04:56:54.715Z,985.56
2018-04-02T04:57:54.843Z,985.54
2018-04-02T04:58:54.994Z,985.54
2018-04-02T04:59:55.128Z,985.53
2018-04-02T05:00:55.263Z,985.55
2018-04-02T05:01:55.399Z,985.49
2018-04-02T05:02:55.531Z,985.53
2018-04-02T05:03:55.668Z,985.57
2018-04-02T05:04:55.792Z,985.51
2018-04-02T05:05:55.936Z,985.52
2018-04-02T05:06:56.099Z,985.50
2018-04-02T05:07:56.222Z,985.49
2018-04-02T05:08:56.356Z,985.50
2018-04-02T05:09:56.493Z,985.50
2018-04-02T05:10:56.630Z,985.48
2018-04-02T05:11:56.756Z,985.51
2018-04-02T05:12:56.889Z,985.50
2018-04-02T05:13:57.018Z,985.47
2018-04-02T05:14:57.172Z,985.49
2018-04-02T05:15:57.300Z,985.52
2018-04-02T05:16:57.427Z,985.53
2018-04-02T05:17:57.562Z,985.50
2018-04-02T05:18:57.724Z,985.53
2018-04-02T05:19:57.864Z,985.54
2018-04-02T05:20:57.997Z,985.59
2018-04-02T05:21:58.142Z,985.60
2018-04-02T05:22:58.272Z,985.66
2018-04-02T05:23:58.407Z,985.66
2018-04-02T05:24:58.549Z,985.60
2018-04-02T05:25:58.677Z,985.58
2018-04-02T05:26:58.818Z,985.59
2018-04-02T05:27:58.959Z,985.61
2018-04-02T05:28:59.102Z,985.60
2018-04-02T05:29:59.244Z,985.59
2018-04-02T05:30:59.401Z,985.62
2018-04-02T05:31:59.508Z,985.64
2018-04-02T05:32:59.654Z,985.62
2018-04-02T05:33:59.797Z,985.55
2018-04-02T05:34:59.919Z,985.57
2018-04-02T05:36:00.046Z,985.53
2018-04-02T05:37:00.188Z,985.52
2018-04-02T05:38:00.318Z,985.52
2018-04-02T05:39:00.448Z,985.52
2018-04-02T05:40:00.592Z,985.51
2018-04-02T05:41:00.738Z,985.48
2018-04-02T05:42:00.866Z,985.46
2018-04-02T05:43:01.005Z,985.45
2018-04-02T05:44:01.135Z,985.46
2018-04-02T05:45:01.264Z,985.48
2018-04-02T05:46:01.390Z,985.50
2018-04-02T05:47:01.524Z,985.52
2018-04-02T05:48:01.659Z,985.54
2018-04-02T05:49:01.790Z,985.53
2018-04-02T05:50:01.924Z,985.57
2018-04-02T05:51:02.071Z,985.58
2018-04-02T05:52:02.196Z,985.66
2018-04-02T05:53:03.195Z,985.59
2018-04-02T05:54:02.469Z,985.63
2018-04-02T05:55:02.611Z,985.62
2018-04-02T05:56:02.745Z,985.59
2018-04-02T05:57:02.871Z,985.65
2018-04-02T05:58:03.013Z,985.66
2018-04-02T05:59:03.144Z,985.64
2018-04-02T06:00:03.285Z,985.66
2018-04-02T06:01:03.433Z,985.68
2018-04-02T06:02:03.552Z,985.66
2018-04-02T06:03:03.683Z,985.67
2018-04-02T06:04:03.820Z,985.72
2018-04-02T06:05:03.950Z,985.70
2018-04-02T06:06:04.083Z,985.68
2018-04-02T06:07:04.227Z,985.68
2018-04-02T06:08:04.360Z,985.70
2018-04-02T06:09:04.494Z,985.72
2018-04-02T06:10:04.627Z,985.73
2018-04-02T06:11:04.760Z,985.72
2018-04-02T06:12:04.894Z,985.77
2018-04-02T06:13:05.029Z,985.76
2018-04-02T06:14:05.156Z,985.74
2018-04-02T06:15:05.304Z,985.69
2018-04-02T06:16:05.482Z,985.75
2018-04-02T06:17:05.563Z,985.73
2018-04-02T06:18:05.694Z,985.69
2018-04-02T06:19:05.843Z,985.71
2018-04-02T06:20:05.980Z,985.71
2018-04-02T06:21:06.113Z,985.67
2018-04-02T06:22:07.179Z,985.64
2018-04-02T06:23:06.376Z,985.63
2018-04-02T06:24:06.518Z,985.57
2018-04-02T06:25:06.653Z,985.65
2018-04-02T06:26:06.787Z,985.62
2018-04-02T06:27:06.917Z,985.63
2018-04-02T06:28:07.056Z,985.61
2018-04-02T06:29:07.189Z,985.61
2018-04-02T06:30:07.323Z,985.60
2018-04-02T06:31:07.457Z,985.58
2018-04-02T06:32:07.588Z,985.57
2018-04-02T06:33:07.717Z,985.58
2018-04-02T06:34:07.850Z,985.57
2018-04-02T06:35:07.985Z,985.60
2018-04-02T06:36:08.116Z,985.58
2018-04-02T06:37:08.271Z,985.57
2018-04-02T06:38:08.384Z,985.60
2018-04-02T06:39:08.522Z,985.66
2018-04-02T06:40:08.655Z,985.60
2018-04-02T06:41:08.794Z,985.57
2018-04-02T06:42:08.932Z,985.62
2018-04-02T06:43:09.068Z,985.62
2018-04-02T06:44:09.207Z,985.59
2018-04-02T06:45:09.373Z,985.62
2018-04-02T06:46:09.471Z,985.61
2018-04-02T06:47:09.603Z,985.58
2018-04-02T06:48:09.734Z,985.59
2018-04-02T06:49:09.868Z,985.60
2018-04-02T06:50:09.997Z,985.60
2018-04-02T06:51:10.136Z,985.64
2018-04-02T06:52:10.277Z,985.62
2018-04-02T06:53:10.406Z,985.62
2018-04-02T06:54:10.547Z,985.59
2018-04-02T06:55:10.679Z,985.61
2018-04-02T06:56:10.816Z,985.67
2018-04-02T06:57:10.952Z,985.63
2018-04-02T06:58:11.089Z,985.63
2018-04-02T06:59:11.217Z,985.60
2018-04-02T07:00:11.361Z,985.62
2018-04-02T07:01:11.498Z,985.58
2018-04-02T07:02:11.630Z,985.63
2018-04-02T07:03:11.760Z,985.59
2018-04-02T07:04:11.898Z,985.62
2018-04-02T07:05:12.022Z,985.55
2018-04-02T07:06:12.158Z,985.61
2018-04-02T07:07:12.298Z,985.59
2018-04-02T07:08:13.214Z,985.64
2018-04-02T07:09:12.620Z,985.64
2018-04-02T07:10:12.751Z,985.63
2018-04-02T07:11:12.891Z,985.62
2018-04-02T07:12:13.020Z,985.60
2018-04-02T07:13:13.154Z,985.54
2018-04-02T07:14:13.299Z,985.59
2018-04-02T07:15:13.432Z,985.59
2018-04-02T07:16:13.569Z,985.59
2018-04-02T07:17:13.700Z,985.56
2018-04-02T07:18:13.832Z,985.58
2018-04-02T07:19:13.969Z,985.59
2018-04-02T07:20:14.101Z,985.61
2018-04-02T07:21:14.243Z,985.64
2018-04-02T07:22:14.383Z,985.64
2018-04-02T07:23:14.512Z,985.59
2018-04-02T07:24:14.645Z,985.65
2018-04-02T07:25:14.780Z,985.63
2018-04-02T07:26:14.912Z,985.68
2018-04-02T07:27:15.045Z,985.61
2018-04-02T07:28:15.181Z,985.64
2018-04-02T07:29:15.316Z,985.68
2018-04-02T07:30:15.449Z,985.61
2018-04-02T07:31:15.589Z,985.59
2018-04-02T07:32:15.723Z,985.62
2018-04-02T07:33:15.871Z,985.64
2018-04-02T07:34:16.000Z,985.55
2018-04-02T07:35:16.136Z,985.64
2018-04-02T07:36:16.266Z,985.61
2018-04-02T07:37:16.501Z,985.60
2018-04-02T07:38:16.535Z,985.56
2018-04-02T07:39:16.663Z,985.54
2018-04-02T07:40:16.801Z,985.56
2018-04-02T07:41:16.944Z,985.57
2018-04-02T07:42:17.078Z,985.62
2018-04-02T07:43:17.212Z,985.56
2018-04-02T07:44:17.411Z,985.58
2018-04-02T07:45:17.480Z,985.54
2018-04-02T07:46:17.612Z,985.47
2018-04-02T07:47:17.747Z,985.49
2018-04-02T07:48:17.883Z,985.48
2018-04-02T07:49:18.016Z,985.50
2018-04-02T07:50:18.155Z,985.45
2018-04-02T07:51:18.284Z,985.45
2018-04-02T07:52:18.415Z,985.48
2018-04-02T07:53:18.553Z,985.50
2018-04-02T07:54:18.690Z,985.47
2018-04-02T07:55:18.816Z,985.47
2018-04-02T07:56:18.948Z,985.43
2018-04-02T07:57:19.084Z,985.45
2018-04-02T07:58:19.216Z,985.43
2018-04-02T07:59:19.349Z,985.43
2018-04-02T08:00:19.484Z,985.43
2018-04-02T08:01:19.618Z,985.44
2018-04-02T08:02:19.755Z,985.48
2018-04-02T08:03:19.888Z,985.50
2018-04-02T08:04:20.045Z,985.51
2018-04-02T08:05:20.158Z,985.49
2018-04-02T08:06:20.296Z,985.43
2018-04-02T08:07:20.435Z,985.49
2018-04-02T08:08:20.567Z,985.48
2018-04-02T08:09:21.240Z,985.51
2018-04-02T08:10:20.901Z,985.49
2018-04-02T08:11:21.031Z,985.44
2018-04-02T08:12:21.167Z,985.52
2018-04-02T08:13:21.300Z,985.44
2018-04-02T08:14:21.432Z,985.49
2018-04-02T08:15:21.571Z,985.49
2018-04-02T08:16:21.702Z,985.52
2018-04-02T08:17:21.838Z,985.48
2018-04-02T08:18:21.975Z,985.49
2018-04-02T08:19:22.109Z,985.45
2018-04-02T08:20:22.254Z,985.44
2018-04-02T08:21:22.412Z,985.41
2018-04-02T08:22:22.518Z,985.44
2018-04-02T08:23:22.655Z,985.42
2018-04-02T08:24:22.786Z,985.42
2018-04-02T08:25:22.942Z,985.40
2018-04-02T08:26:23.056Z,985.41
2018-04-02T08:27:23.193Z,985.39
2018-04-02T08:28:23.340Z,985.38
2018-04-02T08:29:23.470Z,985.43
2018-04-02T08:30:23.606Z,985.39
2018-04-02T08:31:23.733Z,985.40
2018-04-02T08:32:23.873Z,985.45
2018-04-02T08:33:24.003Z,985.45
2018-04-02T08:34:24.140Z,985.39
2018-04-02T08:35:24.266Z,985.47
2018-04-02T08:36:24.425Z,985.40
2018-04-02T08:37:24.566Z,985.41
2018-04-02T08:38:24.742Z,985.33
2018-04-02T08:39:24.871Z,985.30
2018-04-02T08:40:25.036Z,985.36
2018-04-02T08:41:25.163Z,985.40
2018-04-02T08:42:25.289Z,985.32
2018-04-02T08:43:25.428Z,985.27
2018-04-02T08:44:25.572Z,985.31
2018-04-02T08:45:25.708Z,985.38
2018-04-02T08:46:25.848Z,985.34
2018-04-02T08:47:25.992Z,985.37
2018-04-02T08:48:26.137Z,985.36
2018-04-02T08:49:26.275Z,985.35
2018-04-02T08:50:26.426Z,985.37
2018-04-02T08:51:26.576Z,985.40
2018-04-02T08:52:26.711Z,985.40
2018-04-02T08:53:26.861Z,985.36
2018-04-02T08:54:27.001Z,985.36
2018-04-02T08:55:27.139Z,985.40
2018-04-02T08:56:27.275Z,985.36
2018-04-02T08:57:27.411Z,985.41
2018-04-02T08:58:27.542Z,985.33
2018-04-02T08:59:27.681Z,985.38
2018-04-02T09:00:27.826Z,985.34
2018-04-02T09:01:27.973Z,985.38
2018-04-02T09:02:28.112Z,985.34
2018-04-02T09:03:28.245Z,985.35
2018-04-02T09:04:28.382Z,985.34
2018-04-02T09:05:28.518Z,985.31
2018-04-02T09:06:28.664Z,985.36
2018-04-02T09:07:28.802Z,985.34
2018-04-02T09:08:28.936Z,985.35
2018-04-02T09:09:29.079Z,985.38
2018-04-02T09:10:29.211Z,985.34
2018-04-02T09:11:29.353Z,985.32
2018-04-02T09:12:29.485Z,985.39
2018-04-02T09:13:29.618Z,985.43
2018-04-02T09:14:29.750Z,985.31
2018-04-02T09:15:29.879Z,985.33
2018-04-02T09:16:30.026Z,985.35
2018-04-02T09:17:30.162Z,985.32
2018-04-02T09:18:30.303Z,985.32
2018-04-02T09:19:30.447Z,985.31
2018-04-02T09:20:30.588Z,985.32
2018-04-02T09:21:30.715Z,985.27
2018-04-02T09:22:30.863Z,985.40
2018-04-02T09:23:30.999Z,985.34
2018-04-02T09:24:31.134Z,985.28
2018-04-02T09:25:31.274Z,985.33
2018-04-02T09:26:31.409Z,985.36
2018-04-02T09:27:31.539Z,985.33
2018-04-02T09:28:31.676Z,985.28
2018-04-02T09:29:31.812Z,985.15
2018-04-02T09:30:31.948Z,985.15
2018-04-02T09:31:32.082Z,985.13
2018-04-02T09:32:32.221Z,985.10
2018-04-02T09:33:32.442Z,985.10
2018-04-02T09:34:32.442Z,985.12
2018-04-02T09:35:32.583Z,985.10
2018-04-02T09:36:32.716Z,985.13
2018-04-02T09:37:32.882Z,985.18
2018-04-02T09:38:33.016Z,985.12
2018-04-02T09:39:33.154Z,985.09
2018-04-02T09:40:33.294Z,985.07
2018-04-02T09:41:33.427Z,985.04
2018-04-02T09:42:33.573Z,985.04
2018-04-02T09:43:33.712Z,984.96
2018-04-02T09:44:33.851Z,984.94
2018-04-02T09:45:33.982Z,984.90
2018-04-02T09:46:34.123Z,984.87
2018-04-02T09:47:34.259Z,984.92
2018-04-02T09:48:34.402Z,984.92
2018-04-02T09:49:34.539Z,984.86
2018-04-02T09:50:34.672Z,984.90
2018-04-02T09:51:34.829Z,984.92
2018-04-02T09:52:34.969Z,984.93
2018-04-02T09:53:35.098Z,984.93
2018-04-02T09:54:35.235Z,984.89
2018-04-02T09:55:35.372Z,984.89
2018-04-02T09:56:35.509Z,984.85
2018-04-02T09:57:35.643Z,984.80
2018-04-02T09:58:35.782Z,984.84
2018-04-02T09:59:35.919Z,984.81
2018-04-02T10:00:36.109Z,984.81
2018-04-02T10:01:36.143Z,984.80
2018-04-02T10:02:36.278Z,984.78
2018-04-02T10:03:36.428Z,984.84
2018-04-02T10:04:36.639Z,984.83
2018-04-02T10:05:36.682Z,984.74
2018-04-02T10:06:36.816Z,984.75
2018-04-02T10:07:36.948Z,984.63
2018-04-02T10:08:37.090Z,984.61
2018-04-02T10:09:37.228Z,984.64
2018-04-02T10:10:37.394Z,984.59
2018-04-02T10:11:37.491Z,984.57
2018-04-02T10:12:37.644Z,984.55
2018-04-02T10:13:37.773Z,984.61
2018-04-02T10:14:37.911Z,984.60
2018-04-02T10:15:38.100Z,984.57
2018-04-02T10:16:38.186Z,984.53
2018-04-02T10:17:38.328Z,984.51
2018-04-02T10:18:38.567Z,984.46
2018-04-02T10:19:38.581Z,984.56
2018-04-02T10:20:39.484Z,984.49
2018-04-02T10:21:38.897Z,984.44
2018-04-02T10:22:38.910Z,984.46
2018-04-02T10:23:39.049Z,984.41
2018-04-02T10:24:39.188Z,984.42
2018-04-02T10:25:39.324Z,984.41
2018-04-02T10:26:39.460Z,984.39
2018-04-02T10:27:39.592Z,984.43
2018-04-02T10:28:39.732Z,984.43
2018-04-02T10:29:39.886Z,984.41
2018-04-02T10:30:40.003Z,984.40
2018-04-02T10:31:40.148Z,984.37
2018-04-02T10:32:40.293Z,984.34
2018-04-02T10:33:40.414Z,984.36
2018-04-02T10:34:40.547Z,984.38
2018-04-02T10:35:40.702Z,984.34
2018-04-02T10:36:40.847Z,984.35
2018-04-02T10:37:40.982Z,984.29
2018-04-02T10:38:41.114Z,984.27
2018-04-02T10:39:41.252Z,984.23
2018-04-02T10:40:41.386Z,984.18
2018-04-02T10:41:41.526Z,984.17
2018-04-02T10:42:41.658Z,984.18
2018-04-02T10:43:41.796Z,984.16
2018-04-02T10:44:41.930Z,984.25
2018-04-02T10:45:42.071Z,984.14
2018-04-02T10:46:42.948Z,984.23
2018-04-02T10:47:42.331Z,984.30
2018-04-02T10:48:42.477Z,984.33
2018-04-02T10:49:42.613Z,984.43
2018-04-02T10:50:42.749Z,984.62
2018-04-02T10:51:42.884Z,984.42
2018-04-02T10:52:43.036Z,984.37
2018-04-02T10:53:43.171Z,984.39
2018-04-02T10:54:43.313Z,984.42
2018-04-02T10:55:43.455Z,984.50
2018-04-02T10:56:43.588Z,984.55
2018-04-02T10:57:43.734Z,984.57
2018-04-02T10:58:43.870Z,984.81
2018-04-02T10:59:44.082Z,984.74
2018-04-02T11:00:44.200Z,984.07
2018-04-02T11:01:44.330Z,984.12
2018-04-02T11:02:44.468Z,984.17
2018-04-02T11:03:44.612Z,983.98
2018-04-02T11:04:44.783Z,983.93
2018-04-02T11:05:44.970Z,983.98
2018-04-02T11:06:45.069Z,983.95
2018-04-02T11:07:45.219Z,984.15
2018-04-02T11:08:45.367Z,983.96
2018-04-02T11:09:45.509Z,984.09
2018-04-02T11:10:45.680Z,984.06
2018-04-02T11:11:45.813Z,983.85
2018-04-02T11:12:45.959Z,983.86
2018-04-02T11:13:46.103Z,983.78
2018-04-02T11:14:46.237Z,983.96
2018-04-02T11:15:46.383Z,984.24
2018-04-02T11:16:46.521Z,983.80
2018-04-02T11:17:46.671Z,983.82
2018-04-02T11:18:46.852Z,983.77
2018-04-02T11:19:46.995Z,983.72
2018-04-02T11:20:47.136Z,983.71
2018-04-02T11:21:47.280Z,983.70
2018-04-02T11:22:47.418Z,984.06
2018-04-02T11:23:47.614Z,983.93
2018-04-02T11:24:47.705Z,983.89
2018-04-02T11:25:47.851Z,983.73
2018-04-02T11:26:47.999Z,983.66
2018-04-02T11:27:48.138Z,983.74
2018-04-02T11:28:48.283Z,983.78
2018-04-02T11:29:48.431Z,983.94
2018-04-02T11:30:48.570Z,983.74
2018-04-02T11:31:48.709Z,983.93
2018-04-02T11:32:48.845Z,983.95
2018-04-02T11:33:48.997Z,984.01
2018-04-02T11:34:49.138Z,984.00
2018-04-02T11:35:49.309Z,984.00
2018-04-02T11:36:49.434Z,984.02
2018-04-02T11:37:49.574Z,983.91
2018-04-02T11:38:49.717Z,984.06
2018-04-02T11:39:49.855Z,984.04
2018-04-02T11:40:49.998Z,983.80
2018-04-02T11:41:50.140Z,984.05
2018-04-02T11:42:50.299Z,984.00
2018-04-02T11:43:50.424Z,984.07
2018-04-02T11:44:50.568Z,983.66
2018-04-02T11:45:50.713Z,983.63
2018-04-02T11:46:50.859Z,983.55
2018-04-02T11:47:51.000Z,983.64
2018-04-02T11:48:51.148Z,983.50
2018-04-02T11:49:51.308Z,983.50
2018-04-02T11:50:51.444Z,983.75
2018-04-02T11:51:51.588Z,983.69
2018-04-02T11:52:51.738Z,983.73
2018-04-02T11:53:51.874Z,983.75
2018-04-02T11:54:52.016Z,983.75
2018-04-02T11:55:52.166Z,983.54
2018-04-02T11:56:52.318Z,983.70
2018-04-02T11:57:52.452Z,983.67
2018-04-02T11:58:52.602Z,983.58
2018-04-02T11:59:52.748Z,983.70
2018-04-02T12:00:52.890Z,983.69
2018-04-02T12:01:53.039Z,983.62
2018-04-02T12:02:53.183Z,983.61
2018-04-02T12:03:53.329Z,983.50
2018-04-02T12:04:53.470Z,983.52
2018-04-02T12:05:53.613Z,983.49
2018-04-02T12:06:53.755Z,983.44
2018-04-02T12:07:53.898Z,983.56
2018-04-02T12:08:54.043Z,983.43
2018-04-02T12:09:54.188Z,983.51
2018-04-02T12:10:54.333Z,983.42
2018-04-02T12:11:54.478Z,983.45
2018-04-02T12:12:54.628Z,983.48
2018-04-02T12:13:54.769Z,983.38
2018-04-02T12:14:54.917Z,983.37
2018-04-02T12:15:55.068Z,983.35
2018-04-02T12:16:55.257Z,983.34
2018-04-02T12:17:55.401Z,983.26
2018-04-02T12:18:55.542Z,983.24
2018-04-02T12:19:55.684Z,983.22
2018-04-02T12:20:55.841Z,983.09
2018-04-02T12:21:55.973Z,983.12
2018-04-02T12:22:56.118Z,983.09
2018-04-02T12:23:56.257Z,983.01
2018-04-02T12:24:56.411Z,983.06
2018-04-02T12:25:56.619Z,983.07
2018-04-02T12:26:56.705Z,983.10
2018-04-02T12:27:56.849Z,983.02
2018-04-02T12:28:57.003Z,983.03
2018-04-02T12:29:57.153Z,983.12